Arlington, Indiana
Current Conditions -  °F | °C
As of 3:53 PM on Tuesday 21 Oct 2014 (Local Time) from KGEZ Reporting Station
Broken Clouds Broken Clouds  
Wind Chill: 57°   Ceiling: 5500
Heat Index: 57°   Visibility: 10mi
Dew Point: 41°   Wind: 13mph
Humidity: 55%   Direction: 350°N
Pressure: 30.08"   Gusts: NA
Location:  39.64°N, 85.57°W
Report Text: KGEZ 211953Z AUTO 35011KT 10SM BKN055 14/05 A3008 RMK AO2 SLP185 T01390050
Loading
Personal Weather Stations






























Interactive Weather Map
Tropical Storm Tracking
New forecast layout! Learn more

10-Day Weather Forecast

Advertisements
Track Severe Weather on mobile